Metar z połowy godziny Komunikat METAR ze strony awiacja.imgw.pl Metar Mil EPDA METAR EPDA 230800Z 27010KT 230V310 CAVOK 07/03 Q1019 RMK 066 076 0/0=